Airfield :
LOGIN :

Register | Disclaimer

   EN    FR    IT 

 










Legend :    VFR   Marginal VFR   IFR   Intensive IFR   Very Intensive IFR
Visi :
Ceiling :
>= 8 km
>= 3000ft
5 to 8 km
1000 to 3000 ft
1500m to 5 km
500 to 1000 ft
800 to 1500m
200 to 500 ft
< 800m
< 200 ft
Symbols :   Thunderstorms  Fog  Heavy snow  Heavy precipitations  Wind > 20 kt
SIGMETs :     Misc.  Thunderstorms  Icing  Turbulence  Mountain Waves  Volcanic Ashes






- Airport Elevation : 16 ft
- IATA code : EAS


LESO - San Sebastian Fuenterrabia

CURRENT METAR :
  • 261130Z 04003KT 010V080 CAVOK 11/04 Q1032

EXPIRED METARs :
  • 261100Z 00000KT CAVOK 10/03 Q1033
  • 261030Z VRB02KT CAVOK 08/03 Q1033
  • 261000Z VRB02KT CAVOK 08/03 Q1033
  • 260930Z 19003KT 160V230 CAVOK 06/03 Q1033
  • 260900Z 20004KT 170V240 CAVOK 04/02 Q1033

TAF TAF LESO
Valid from the 26 at 12:00 until the 27 at 12:00 UTC


261100Z 2612/2712 VRB04KT CAVOK TX11/2615Z TN00/2707Z
PROB30
TEMPO 2613/2615 03010KT
PROB30
TEMPO 2620/2708 3000 BR BCFG BKN005
PROB30
TEMPO 2623/2707 0350 FG VV001



MET'MAP, your aeronautical weather chart ! - Copyright ORBIFLY December 2007 - Disclaimer

ORBIFLY MET'MAP TEAM :

Programming & Development : Alexandra Zaïnal
Original concept : Baudouin d'Aumeries
Technical & hardware support : Manuel Goepfert
Assistance : Marc-Olivier Méhu

Contact : metmap@orbifly.com




SOURCES & CREDITS :

   NOAA